sensor_id;sensor_type;location;lat;lon;timestamp;pressure;altitude;pressure_sealevel;temperature;humidity
76460;BME280;65299;46.084;18.762;2023-06-24T00:01:00;100784.19;;;19.29;77.83
76460;BME280;65299;46.084;18.762;2023-06-24T00:04:00;100786.81;;;19.34;77.75
76460;BME280;65299;46.084;18.762;2023-06-24T00:07:01;100789.41;;;19.25;77.93
76460;BME280;65299;46.084;18.762;2023-06-24T00:10:01;100792.34;;;19.37;77.89
76460;BME280;65299;46.084;18.762;2023-06-24T00:13:03;100805.31;;;19.35;78.29
76460;BME280;65299;46.084;18.762;2023-06-24T00:16:04;100831.00;;;19.41;78.53
76460;BME280;65299;46.084;18.762;2023-06-24T00:19:06;100844.78;;;19.40;78.38
76460;BME280;65299;46.084;18.762;2023-06-24T00:22:08;100839.69;;;19.60;78.36
76460;BME280;65299;46.084;18.762;2023-06-24T00:25:08;100843.53;;;19.24;78.02
76460;BME280;65299;46.084;18.762;2023-06-24T00:28:09;100834.19;;;18.99;78.68
76460;BME280;65299;46.084;18.762;2023-06-24T00:31:09;100830.13;;;19.10;78.74
76460;BME280;65299;46.084;18.762;2023-06-24T00:34:11;100840.13;;;19.32;78.38
76460;BME280;65299;46.084;18.762;2023-06-24T00:37:12;100848.78;;;19.42;77.86
76460;BME280;65299;46.084;18.762;2023-06-24T00:40:12;100836.13;;;19.29;78.50
76460;BME280;65299;46.084;18.762;2023-06-24T00:43:16;100836.22;;;19.38;79.09
76460;BME280;65299;46.084;18.762;2023-06-24T00:46:16;100834.19;;;19.43;77.75
76460;BME280;65299;46.084;18.762;2023-06-24T00:49:19;100838.59;;;19.39;78.08
76460;BME280;65299;46.084;18.762;2023-06-24T00:52:20;100821.63;;;19.17;78.94
76460;BME280;65299;46.084;18.762;2023-06-24T00:55:20;100806.03;;;19.27;78.89
76460;BME280;65299;46.084;18.762;2023-06-24T00:58:21;100816.19;;;19.08;79.11
76460;BME280;65299;46.084;18.762;2023-06-24T01:01:22;100802.63;;;18.91;79.18
76460;BME280;65299;46.084;18.762;2023-06-24T01:04:24;100788.31;;;18.82;79.64
76460;BME280;65299;46.084;18.762;2023-06-24T01:07:25;100784.06;;;18.81;79.93
76460;BME280;65299;46.084;18.762;2023-06-24T01:10:26;100780.41;;;18.85;79.54
76460;BME280;65299;46.084;18.762;2023-06-24T01:13:26;100756.03;;;18.82;80.18
76460;BME280;65299;46.084;18.762;2023-06-24T01:16:40;100733.13;;;18.62;81.29
76460;BME280;65299;46.084;18.762;2023-06-24T01:23:48;100753.91;;;18.92;80.19
76460;BME280;65299;46.084;18.762;2023-06-24T01:43:18;100796.06;;;19.28;78.63
76460;BME280;65299;46.084;18.762;2023-06-24T01:46:22;100813.56;;;19.17;79.16
76460;BME280;65299;46.084;18.762;2023-06-24T01:49:23;100826.66;;;19.32;79.48
76460;BME280;65299;46.084;18.762;2023-06-24T01:52:29;100855.78;;;19.30;78.98
76460;BME280;65299;46.084;18.762;2023-06-24T01:55:31;100861.09;;;19.21;79.95
76460;BME280;65299;46.084;18.762;2023-06-24T01:58:34;100827.19;;;19.34;79.92
76460;BME280;65299;46.084;18.762;2023-06-24T02:01:37;100821.38;;;19.49;79.46
76460;BME280;65299;46.084;18.762;2023-06-24T02:04:39;100833.94;;;19.53;nan
76460;BME280;65299;46.084;18.762;2023-06-24T02:07:41;100835.75;;;19.36;79.85
76460;BME280;65299;46.084;18.762;2023-06-24T02:10:43;100815.00;;;19.36;81.04
76460;BME280;65299;46.084;18.762;2023-06-24T02:13:45;100772.16;;;19.04;80.96
76460;BME280;65299;46.084;18.762;2023-06-24T02:16:46;100771.78;;;19.19;81.52
76460;BME280;65299;46.084;18.762;2023-06-24T02:19:48;100788.38;;;19.13;80.54
76460;BME280;65299;46.084;18.762;2023-06-24T02:22:48;100800.53;;;19.32;80.07
76460;BME280;65299;46.084;18.762;2023-06-24T02:25:50;100821.22;;;19.45;79.45
76460;BME280;65299;46.084;18.762;2023-06-24T02:28:52;100834.81;;;19.40;80.83
76460;BME280;65299;46.084;18.762;2023-06-24T02:31:53;100835.41;;;19.37;81.85
76460;BME280;65299;46.084;18.762;2023-06-24T02:34:56;100838.81;;;19.29;81.57
76460;BME280;65299;46.084;18.762;2023-06-24T02:37:57;100850.31;;;19.21;80.65
76460;BME280;65299;46.084;18.762;2023-06-24T02:40:57;100858.25;;;19.04;81.78
76460;BME280;65299;46.084;18.762;2023-06-24T02:43:58;100852.75;;;18.87;83.03
76460;BME280;65299;46.084;18.762;2023-06-24T02:46:59;100857.59;;;18.63;82.19
76460;BME280;65299;46.084;18.762;2023-06-24T02:50:00;100874.81;;;18.62;83.22
76460;BME280;65299;46.084;18.762;2023-06-24T02:53:01;100855.22;;;18.48;83.53
76460;BME280;65299;46.084;18.762;2023-06-24T02:56:04;100835.91;;;18.46;83.59
76460;BME280;65299;46.084;18.762;2023-06-24T02:59:04;100822.97;;;18.48;83.72
76460;BME280;65299;46.084;18.762;2023-06-24T03:02:05;100822.53;;;18.41;84.18
76460;BME280;65299;46.084;18.762;2023-06-24T03:05:06;100837.72;;;18.50;83.83
76460;BME280;65299;46.084;18.762;2023-06-24T03:08:07;100844.47;;;18.48;84.12
76460;BME280;65299;46.084;18.762;2023-06-24T03:11:08;100861.19;;;18.45;83.77
76460;BME280;65299;46.084;18.762;2023-06-24T03:14:09;100868.84;;;18.38;84.65
76460;BME280;65299;46.084;18.762;2023-06-24T03:17:10;100884.28;;;18.32;84.54
76460;BME280;65299;46.084;18.762;2023-06-24T03:20:11;100877.81;;;18.33;84.10
76460;BME280;65299;46.084;18.762;2023-06-24T03:23:12;100883.88;;;18.39;83.70
76460;BME280;65299;46.084;18.762;2023-06-24T03:26:12;100902.19;;;18.37;83.88
76460;BME280;65299;46.084;18.762;2023-06-24T03:29:12;100888.38;;;18.43;84.10
76460;BME280;65299;46.084;18.762;2023-06-24T03:32:13;100898.91;;;18.40;83.25
76460;BME280;65299;46.084;18.762;2023-06-24T03:35:14;100894.84;;;18.56;82.29
76460;BME280;65299;46.084;18.762;2023-06-24T03:38:14;100899.09;;;18.70;81.96
76460;BME280;65299;46.084;18.762;2023-06-24T03:41:15;100912.16;;;18.63;82.52
76460;BME280;65299;46.084;18.762;2023-06-24T03:44:15;100925.63;;;18.50;82.48
76460;BME280;65299;46.084;18.762;2023-06-24T03:47:15;100938.06;;;18.46;82.68
76460;BME280;65299;46.084;18.762;2023-06-24T03:50:16;100947.22;;;18.45;82.28
76460;BME280;65299;46.084;18.762;2023-06-24T03:53:16;100960.13;;;18.43;82.61
76460;BME280;65299;46.084;18.762;2023-06-24T03:56:17;100966.44;;;18.52;82.86
76460;BME280;65299;46.084;18.762;2023-06-24T03:59:17;100971.22;;;18.55;82.32
76460;BME280;65299;46.084;18.762;2023-06-24T04:02:18;100980.06;;;18.55;81.77
76460;BME280;65299;46.084;18.762;2023-06-24T04:05:19;100995.03;;;18.75;81.69
76460;BME280;65299;46.084;18.762;2023-06-24T04:08:20;100990.13;;;18.77;81.24
76460;BME280;65299;46.084;18.762;2023-06-24T04:11:21;100997.00;;;18.83;80.80
76460;BME280;65299;46.084;18.762;2023-06-24T04:14:21;100994.19;;;19.01;79.92
76460;BME280;65299;46.084;18.762;2023-06-24T04:17:22;101005.28;;;19.49;77.26
76460;BME280;65299;46.084;18.762;2023-06-24T04:20:22;101002.59;;;19.94;76.23
76460;BME280;65299;46.084;18.762;2023-06-24T04:23:22;100997.69;;;20.18;74.15
76460;BME280;65299;46.084;18.762;2023-06-24T04:26:23;101002.38;;;20.34;72.95
76460;BME280;65299;46.084;18.762;2023-06-24T04:29:24;100997.78;;;20.35;73.21
76460;BME280;65299;46.084;18.762;2023-06-24T04:32:24;100998.16;;;20.50;73.41
76460;BME280;65299;46.084;18.762;2023-06-24T04:35:25;100996.41;;;20.46;73.00
76460;BME280;65299;46.084;18.762;2023-06-24T04:38:25;101004.91;;;20.09;72.58
76460;BME280;65299;46.084;18.762;2023-06-24T04:41:26;101010.63;;;20.07;72.91
76460;BME280;65299;46.084;18.762;2023-06-24T04:44:26;100995.47;;;19.98;72.99
76460;BME280;65299;46.084;18.762;2023-06-24T04:47:26;101001.50;;;19.95;72.99
76460;BME280;65299;46.084;18.762;2023-06-24T04:50:27;101006.84;;;20.17;72.58
76460;BME280;65299;46.084;18.762;2023-06-24T04:53:27;100998.41;;;20.32;71.49
76460;BME280;65299;46.084;18.762;2023-06-24T04:56:28;100997.94;;;20.30;71.44
76460;BME280;65299;46.084;18.762;2023-06-24T04:59:28;101010.31;;;20.70;72.07
76460;BME280;65299;46.084;18.762;2023-06-24T05:02:28;100990.63;;;20.70;70.72
76460;BME280;65299;46.084;18.762;2023-06-24T05:05:29;100990.66;;;20.78;70.21
76460;BME280;65299;46.084;18.762;2023-06-24T05:08:29;100957.81;;;20.93;69.67
76460;BME280;65299;46.084;18.762;2023-06-24T05:11:30;100934.53;;;21.06;69.51
76460;BME280;65299;46.084;18.762;2023-06-24T05:14:33;100908.97;;;21.12;69.62
76460;BME280;65299;46.084;18.762;2023-06-24T05:17:34;100903.28;;;21.13;69.53
76460;BME280;65299;46.084;18.762;2023-06-24T05:20:34;100891.94;;;20.86;70.04
76460;BME280;65299;46.084;18.762;2023-06-24T05:23:35;100893.22;;;20.97;69.46
76460;BME280;65299;46.084;18.762;2023-06-24T05:26:35;100886.28;;;21.13;67.09
76460;BME280;65299;46.084;18.762;2023-06-24T05:29:35;100883.56;;;21.04;67.07
76460;BME280;65299;46.084;18.762;2023-06-24T05:32:36;100879.41;;;21.24;66.03
76460;BME280;65299;46.084;18.762;2023-06-24T05:35:36;100889.75;;;21.39;65.85
76460;BME280;65299;46.084;18.762;2023-06-24T05:38:40;100883.38;;;21.35;65.82
76460;BME280;65299;46.084;18.762;2023-06-24T05:41:40;100887.03;;;21.48;64.91
76460;BME280;65299;46.084;18.762;2023-06-24T05:44:40;100900.34;;;21.70;64.12
76460;BME280;65299;46.084;18.762;2023-06-24T05:47:41;100888.22;;;21.76;63.96
76460;BME280;65299;46.084;18.762;2023-06-24T05:50:42;100888.09;;;21.72;63.89
76460;BME280;65299;46.084;18.762;2023-06-24T05:53:42;100891.28;;;21.66;62.98
76460;BME280;65299;46.084;18.762;2023-06-24T05:56:42;100901.91;;;21.71;63.85
76460;BME280;65299;46.084;18.762;2023-06-24T05:59:43;100912.44;;;21.55;63.60
76460;BME280;65299;46.084;18.762;2023-06-24T06:02:43;100899.28;;;21.19;63.31
76460;BME280;65299;46.084;18.762;2023-06-24T06:05:44;100898.50;;;21.27;63.20
76460;BME280;65299;46.084;18.762;2023-06-24T06:08:44;100894.19;;;21.26;62.39
76460;BME280;65299;46.084;18.762;2023-06-24T06:11:44;100898.94;;;21.55;62.82
76460;BME280;65299;46.084;18.762;2023-06-24T06:14:45;100905.47;;;21.45;62.92
76460;BME280;65299;46.084;18.762;2023-06-24T06:17:46;100916.41;;;21.49;62.86
76460;BME280;65299;46.084;18.762;2023-06-24T06:20:46;100908.56;;;21.73;62.28
76460;BME280;65299;46.084;18.762;2023-06-24T06:23:47;100918.91;;;21.71;62.20
76460;BME280;65299;46.084;18.762;2023-06-24T06:26:47;100919.41;;;21.65;61.22
76460;BME280;65299;46.084;18.762;2023-06-24T06:29:48;100920.03;;;21.70;62.46
76460;BME280;65299;46.084;18.762;2023-06-24T06:32:48;100926.47;;;22.03;60.07
76460;BME280;65299;46.084;18.762;2023-06-24T06:35:48;100930.44;;;22.14;59.60
76460;BME280;65299;46.084;18.762;2023-06-24T06:38:49;100935.34;;;22.50;59.76
76460;BME280;65299;46.084;18.762;2023-06-24T06:41:49;100927.78;;;22.73;60.24
76460;BME280;65299;46.084;18.762;2023-06-24T06:44:50;100922.50;;;22.76;59.43
76460;BME280;65299;46.084;18.762;2023-06-24T06:47:50;100926.41;;;22.58;59.03
76460;BME280;65299;46.084;18.762;2023-06-24T06:50:50;100931.44;;;22.39;59.86
76460;BME280;65299;46.084;18.762;2023-06-24T06:53:52;100941.53;;;22.21;59.67
76460;BME280;65299;46.084;18.762;2023-06-24T06:56:53;100932.34;;;22.05;60.12
76460;BME280;65299;46.084;18.762;2023-06-24T06:59:53;100930.22;;;22.19;59.44
76460;BME280;65299;46.084;18.762;2023-06-24T07:02:53;100921.50;;;22.14;59.42
76460;BME280;65299;46.084;18.762;2023-06-24T07:05:54;100918.19;;;22.17;60.11
76460;BME280;65299;46.084;18.762;2023-06-24T07:08:54;100923.59;;;22.17;60.57
76460;BME280;65299;46.084;18.762;2023-06-24T07:11:55;100939.56;;;21.93;60.45
76460;BME280;65299;46.084;18.762;2023-06-24T07:14:55;100931.94;;;21.78;62.02
76460;BME280;65299;46.084;18.762;2023-06-24T07:17:55;100935.91;;;22.35;61.08
76460;BME280;65299;46.084;18.762;2023-06-24T07:20:56;100938.50;;;22.52;60.47
76460;BME280;65299;46.084;18.762;2023-06-24T07:23:57;100948.28;;;22.45;59.69
76460;BME280;65299;46.084;18.762;2023-06-24T07:26:58;100939.66;;;22.51;58.52
76460;BME280;65299;46.084;18.762;2023-06-24T07:29:58;100945.44;;;22.99;58.19
76460;BME280;65299;46.084;18.762;2023-06-24T07:32:58;100946.25;;;22.71;57.85
76460;BME280;65299;46.084;18.762;2023-06-24T07:35:59;100946.41;;;22.37;58.33
76460;BME280;65299;46.084;18.762;2023-06-24T07:38:59;100940.44;;;22.14;58.98
76460;BME280;65299;46.084;18.762;2023-06-24T07:42:00;100943.22;;;22.72;58.04
76460;BME280;65299;46.084;18.762;2023-06-24T07:45:00;100930.16;;;23.16;57.92
76460;BME280;65299;46.084;18.762;2023-06-24T07:48:00;100935.66;;;23.07;57.93
76460;BME280;65299;46.084;18.762;2023-06-24T07:51:01;100934.19;;;23.09;58.79
76460;BME280;65299;46.084;18.762;2023-06-24T07:54:01;100940.69;;;22.67;58.85
76460;BME280;65299;46.084;18.762;2023-06-24T07:57:02;100952.47;;;22.71;59.35
76460;BME280;65299;46.084;18.762;2023-06-24T08:00:05;100943.13;;;23.10;58.86
76460;BME280;65299;46.084;18.762;2023-06-24T08:03:09;100936.78;;;23.06;58.37
76460;BME280;65299;46.084;18.762;2023-06-24T08:06:10;100934.69;;;23.65;57.62
76460;BME280;65299;46.084;18.762;2023-06-24T08:09:10;100938.69;;;23.26;57.16
76460;BME280;65299;46.084;18.762;2023-06-24T08:12:11;100939.03;;;23.04;58.35
76460;BME280;65299;46.084;18.762;2023-06-24T08:15:13;100944.38;;;23.13;58.92
76460;BME280;65299;46.084;18.762;2023-06-24T08:18:13;100945.56;;;23.03;59.65
76460;BME280;65299;46.084;18.762;2023-06-24T08:21:14;100956.44;;;22.74;59.05
76460;BME280;65299;46.084;18.762;2023-06-24T08:24:14;100951.22;;;22.60;60.31
76460;BME280;65299;46.084;18.762;2023-06-24T08:27:14;100943.59;;;22.62;60.13
76460;BME280;65299;46.084;18.762;2023-06-24T08:30:15;100944.16;;;22.39;59.76
76460;BME280;65299;46.084;18.762;2023-06-24T08:33:15;100952.47;;;22.34;59.97
76460;BME280;65299;46.084;18.762;2023-06-24T08:36:16;100949.34;;;22.52;60.73
76460;BME280;65299;46.084;18.762;2023-06-24T08:39:16;100946.84;;;22.47;60.82
76460;BME280;65299;46.084;18.762;2023-06-24T08:42:16;100952.72;;;22.49;61.69
76460;BME280;65299;46.084;18.762;2023-06-24T08:45:17;100953.25;;;22.34;61.07
76460;BME280;65299;46.084;18.762;2023-06-24T08:48:19;100954.94;;;22.09;60.91
76460;BME280;65299;46.084;18.762;2023-06-24T08:51:22;100960.63;;;22.25;62.09
76460;BME280;65299;46.084;18.762;2023-06-24T08:54:25;100958.03;;;22.37;62.01
76460;BME280;65299;46.084;18.762;2023-06-24T08:57:26;100949.16;;;22.19;61.67
76460;BME280;65299;46.084;18.762;2023-06-24T09:00:27;100932.06;;;22.36;61.52
76460;BME280;65299;46.084;18.762;2023-06-24T09:03:27;100927.34;;;22.33;63.28
76460;BME280;65299;46.084;18.762;2023-06-24T09:06:28;100915.41;;;22.63;62.03
76460;BME280;65299;46.084;18.762;2023-06-24T09:09:28;100921.44;;;22.69;61.21
76460;BME280;65299;46.084;18.762;2023-06-24T09:12:32;100926.59;;;23.24;60.04
76460;BME280;65299;46.084;18.762;2023-06-24T09:15:37;100924.84;;;23.60;59.33
76460;BME280;65299;46.084;18.762;2023-06-24T09:18:37;100926.53;;;23.53;59.45
76460;BME280;65299;46.084;18.762;2023-06-24T09:21:38;100917.19;;;23.62;59.20
76460;BME280;65299;46.084;18.762;2023-06-24T09:24:39;100936.31;;;23.66;58.53
76460;BME280;65299;46.084;18.762;2023-06-24T09:27:40;100929.34;;;23.56;57.76
76460;BME280;65299;46.084;18.762;2023-06-24T09:30:47;100949.78;;;23.54;58.42
76460;BME280;65299;46.084;18.762;2023-06-24T09:33:47;100946.41;;;23.16;58.09
76460;BME280;65299;46.084;18.762;2023-06-24T09:36:52;100943.16;;;22.81;59.49
76460;BME280;65299;46.084;18.762;2023-06-24T09:39:53;100939.94;;;22.58;60.09
76460;BME280;65299;46.084;18.762;2023-06-24T09:42:58;100948.34;;;22.65;61.14
76460;BME280;65299;46.084;18.762;2023-06-24T09:46:01;100947.00;;;22.80;59.61
76460;BME280;65299;46.084;18.762;2023-06-24T09:49:04;100937.16;;;22.75;60.58
76460;BME280;65299;46.084;18.762;2023-06-24T09:52:06;100919.78;;;22.47;60.15
76460;BME280;65299;46.084;18.762;2023-06-24T09:55:08;100902.41;;;22.19;61.27
76460;BME280;65299;46.084;18.762;2023-06-24T09:58:11;100852.72;;;22.32;61.94
76460;BME280;65299;46.084;18.762;2023-06-24T10:01:12;100840.78;;;22.33;63.60
76460;BME280;65299;46.084;18.762;2023-06-24T10:04:16;100870.97;;;21.51;68.06
76460;BME280;65299;46.084;18.762;2023-06-24T10:07:17;100866.84;;;21.54;71.63
76460;BME280;65299;46.084;18.762;2023-06-24T10:10:18;100850.63;;;21.54;71.62
76460;BME280;65299;46.084;18.762;2023-06-24T10:13:18;100844.75;;;21.52;72.02
76460;BME280;65299;46.084;18.762;2023-06-24T10:16:19;100847.75;;;21.59;73.03
76460;BME280;65299;46.084;18.762;2023-06-24T10:19:20;100856.59;;;21.76;71.35
76460;BME280;65299;46.084;18.762;2023-06-24T10:22:24;100862.06;;;22.05;70.17
76460;BME280;65299;46.084;18.762;2023-06-24T10:25:35;100862.84;;;22.44;69.68
76460;BME280;65299;46.084;18.762;2023-06-24T10:32:07;100875.53;;;22.72;66.75
76460;BME280;65299;46.084;18.762;2023-06-24T10:35:21;100887.00;;;22.98;65.86
76460;BME280;65299;46.084;18.762;2023-06-24T10:38:22;100886.81;;;23.57;62.92
76460;BME280;65299;46.084;18.762;2023-06-24T10:41:22;100892.28;;;23.81;62.98
76460;BME280;65299;46.084;18.762;2023-06-24T10:44:25;100910.84;;;24.03;61.62
76460;BME280;65299;46.084;18.762;2023-06-24T10:47:28;100914.94;;;24.33;61.67
76460;BME280;65299;46.084;18.762;2023-06-24T10:50:29;100918.25;;;24.27;60.29
76460;BME280;65299;46.084;18.762;2023-06-24T10:53:29;100927.75;;;24.45;58.03
76460;BME280;65299;46.084;18.762;2023-06-24T10:56:30;100931.91;;;24.66;57.08
76460;BME280;65299;46.084;18.762;2023-06-24T10:59:50;100928.97;;;24.84;56.80
76460;BME280;65299;46.084;18.762;2023-06-24T11:02:51;100937.84;;;24.00;58.88
76460;BME280;65299;46.084;18.762;2023-06-24T11:05:51;100944.47;;;24.23;58.44
76460;BME280;65299;46.084;18.762;2023-06-24T11:08:51;100939.41;;;24.01;58.48
76460;BME280;65299;46.084;18.762;2023-06-24T11:11:52;100936.81;;;23.92;59.32
76460;BME280;65299;46.084;18.762;2023-06-24T11:15:02;100940.44;;;23.96;59.07
76460;BME280;65299;46.084;18.762;2023-06-24T11:18:03;100921.97;;;24.22;58.23
76460;BME280;65299;46.084;18.762;2023-06-24T11:21:09;100911.00;;;24.19;57.31
76460;BME280;65299;46.084;18.762;2023-06-24T11:24:09;100909.06;;;24.19;57.86
76460;BME280;65299;46.084;18.762;2023-06-24T11:27:11;100901.16;;;24.26;57.42
76460;BME280;65299;46.084;18.762;2023-06-24T11:30:12;100876.06;;;24.05;58.63
76460;BME280;65299;46.084;18.762;2023-06-24T11:33:12;100862.44;;;23.81;57.46
76460;BME280;65299;46.084;18.762;2023-06-24T11:36:17;100860.88;;;23.68;57.95
76460;BME280;65299;46.084;18.762;2023-06-24T11:39:24;100863.88;;;23.66;58.94
76460;BME280;65299;46.084;18.762;2023-06-24T11:42:24;100871.06;;;24.31;57.67
76460;BME280;65299;46.084;18.762;2023-06-24T11:45:25;100887.44;;;24.71;58.15
76460;BME280;65299;46.084;18.762;2023-06-24T11:48:29;100879.22;;;25.07;53.89
76460;BME280;65299;46.084;18.762;2023-06-24T11:51:29;100895.16;;;24.45;56.25
76460;BME280;65299;46.084;18.762;2023-06-24T11:54:40;100897.50;;;25.50;53.92
76460;BME280;65299;46.084;18.762;2023-06-24T11:58:01;100901.75;;;25.08;54.11
76460;BME280;65299;46.084;18.762;2023-06-24T12:01:07;100890.88;;;25.79;52.81
76460;BME280;65299;46.084;18.762;2023-06-24T12:04:12;100888.44;;;25.89;52.24
76460;BME280;65299;46.084;18.762;2023-06-24T12:07:13;100885.66;;;26.33;52.04
76460;BME280;65299;46.084;18.762;2023-06-24T12:10:14;100882.97;;;25.74;53.04
76460;BME280;65299;46.084;18.762;2023-06-24T12:13:14;100885.75;;;25.46;55.33
76460;BME280;65299;46.084;18.762;2023-06-24T12:16:15;100884.22;;;25.61;54.09
76460;BME280;65299;46.084;18.762;2023-06-24T12:19:15;100885.31;;;25.44;53.36
76460;BME280;65299;46.084;18.762;2023-06-24T12:22:15;100878.50;;;25.22;54.32
76460;BME280;65299;46.084;18.762;2023-06-24T12:25:16;100880.41;;;25.49;55.72
76460;BME280;65299;46.084;18.762;2023-06-24T12:28:17;100890.41;;;25.33;53.97
76460;BME280;65299;46.084;18.762;2023-06-24T12:31:17;100888.28;;;25.27;53.53
76460;BME280;65299;46.084;18.762;2023-06-24T12:34:18;100887.94;;;25.40;53.75
76460;BME280;65299;46.084;18.762;2023-06-24T12:37:18;100883.69;;;25.55;52.57
76460;BME280;65299;46.084;18.762;2023-06-24T12:40:19;100878.59;;;26.00;51.26
76460;BME280;65299;46.084;18.762;2023-06-24T12:43:19;100884.50;;;25.87;52.15
76460;BME280;65299;46.084;18.762;2023-06-24T12:46:20;100883.94;;;25.38;53.16
76460;BME280;65299;46.084;18.762;2023-06-24T12:49:20;100883.41;;;25.32;54.38
76460;BME280;65299;46.084;18.762;2023-06-24T12:52:21;100897.44;;;25.07;54.67
76460;BME280;65299;46.084;18.762;2023-06-24T12:55:21;100885.72;;;24.91;55.93
76460;BME280;65299;46.084;18.762;2023-06-24T12:58:23;100886.38;;;25.00;55.93
76460;BME280;65299;46.084;18.762;2023-06-24T13:01:24;100890.78;;;25.04;54.37
76460;BME280;65299;46.084;18.762;2023-06-24T13:04:24;100890.44;;;25.61;53.79
76460;BME280;65299;46.084;18.762;2023-06-24T13:07:25;100884.78;;;26.28;51.85
76460;BME280;65299;46.084;18.762;2023-06-24T13:10:25;100881.25;;;25.97;53.84
76460;BME280;65299;46.084;18.762;2023-06-24T13:13:26;100868.00;;;25.36;54.04
76460;BME280;65299;46.084;18.762;2023-06-24T13:16:26;100870.94;;;25.43;53.80
76460;BME280;65299;46.084;18.762;2023-06-24T13:19:26;100876.16;;;25.09;54.27
76460;BME280;65299;46.084;18.762;2023-06-24T13:22:27;100870.53;;;25.02;55.08
76460;BME280;65299;46.084;18.762;2023-06-24T13:25:27;100857.97;;;24.97;55.87
76460;BME280;65299;46.084;18.762;2023-06-24T13:28:28;100863.19;;;25.02;56.46
76460;BME280;65299;46.084;18.762;2023-06-24T13:31:28;100849.53;;;25.14;56.54
76460;BME280;65299;46.084;18.762;2023-06-24T13:34:28;100842.72;;;24.93;55.71
76460;BME280;65299;46.084;18.762;2023-06-24T13:37:29;100848.41;;;24.88;56.19
76460;BME280;65299;46.084;18.762;2023-06-24T13:40:30;100850.72;;;25.01;55.73
76460;BME280;65299;46.084;18.762;2023-06-24T13:43:31;100840.25;;;24.88;56.13
76460;BME280;65299;46.084;18.762;2023-06-24T13:46:32;100834.56;;;25.20;55.35
76460;BME280;65299;46.084;18.762;2023-06-24T13:49:32;100828.75;;;25.06;55.44
76460;BME280;65299;46.084;18.762;2023-06-24T13:52:33;100828.19;;;25.01;55.35
76460;BME280;65299;46.084;18.762;2023-06-24T13:55:33;100820.53;;;25.77;54.19
76460;BME280;65299;46.084;18.762;2023-06-24T13:58:36;100820.72;;;26.00;53.17
76460;BME280;65299;46.084;18.762;2023-06-24T14:01:36;100829.28;;;25.86;52.72
76460;BME280;65299;46.084;18.762;2023-06-24T14:04:37;100832.28;;;25.50;53.67
76460;BME280;65299;46.084;18.762;2023-06-24T14:07:39;100836.94;;;25.22;53.20
76460;BME280;65299;46.084;18.762;2023-06-24T14:10:39;100838.63;;;24.99;54.49
76460;BME280;65299;46.084;18.762;2023-06-24T14:13:40;100834.91;;;24.91;54.70
76460;BME280;65299;46.084;18.762;2023-06-24T14:16:41;100829.88;;;25.05;54.43
76460;BME280;65299;46.084;18.762;2023-06-24T14:19:41;100839.44;;;25.15;54.06
76460;BME280;65299;46.084;18.762;2023-06-24T14:22:42;100826.13;;;25.10;53.86
76460;BME280;65299;46.084;18.762;2023-06-24T14:25:43;100814.47;;;25.09;52.77
76460;BME280;65299;46.084;18.762;2023-06-24T14:28:44;100816.56;;;25.43;54.42
76460;BME280;65299;46.084;18.762;2023-06-24T14:31:44;100815.09;;;24.91;53.12
76460;BME280;65299;46.084;18.762;2023-06-24T14:34:45;100815.03;;;25.30;52.38
76460;BME280;65299;46.084;18.762;2023-06-24T14:37:45;100800.00;;;27.67;47.02
76460;BME280;65299;46.084;18.762;2023-06-24T14:40:46;100800.72;;;28.65;44.75
76460;BME280;65299;46.084;18.762;2023-06-24T14:43:46;100798.56;;;27.96;45.49
76460;BME280;65299;46.084;18.762;2023-06-24T14:46:47;100799.75;;;28.25;44.11
76460;BME280;65299;46.084;18.762;2023-06-24T14:49:47;100801.94;;;27.89;45.57
76460;BME280;65299;46.084;18.762;2023-06-24T14:52:47;100806.34;;;26.34;49.49
76460;BME280;65299;46.084;18.762;2023-06-24T14:55:48;100784.09;;;27.05;47.78
76460;BME280;65299;46.084;18.762;2023-06-24T14:58:48;100784.81;;;27.66;45.13
76460;BME280;65299;46.084;18.762;2023-06-24T15:01:49;100787.34;;;27.78;44.91
76460;BME280;65299;46.084;18.762;2023-06-24T15:04:49;100789.59;;;28.81;43.82
76460;BME280;65299;46.084;18.762;2023-06-24T15:07:49;100788.72;;;28.44;43.72
76460;BME280;65299;46.084;18.762;2023-06-24T15:10:50;100792.91;;;28.97;42.59
76460;BME280;65299;46.084;18.762;2023-06-24T15:13:50;100795.81;;;28.48;43.30
76460;BME280;65299;46.084;18.762;2023-06-24T15:16:51;100798.75;;;28.62;43.62
76460;BME280;65299;46.084;18.762;2023-06-24T15:19:53;100802.78;;;28.46;42.97
76460;BME280;65299;46.084;18.762;2023-06-24T15:22:54;100807.81;;;28.70;42.59
76460;BME280;65299;46.084;18.762;2023-06-24T15:25:54;100812.22;;;28.82;41.96
76460;BME280;65299;46.084;18.762;2023-06-24T15:28:55;100808.47;;;28.93;42.83
76460;BME280;65299;46.084;18.762;2023-06-24T15:31:55;100812.28;;;28.85;42.80
76460;BME280;65299;46.084;18.762;2023-06-24T15:34:55;100819.34;;;29.63;42.11
76460;BME280;65299;46.084;18.762;2023-06-24T15:37:56;100818.75;;;29.40;42.06
76460;BME280;65299;46.084;18.762;2023-06-24T15:40:56;100811.56;;;29.25;42.78
76460;BME280;65299;46.084;18.762;2023-06-24T15:43:57;100825.97;;;25.93;49.89
76460;BME280;65299;46.084;18.762;2023-06-24T15:46:58;100818.06;;;25.72;50.41
76460;BME280;65299;46.084;18.762;2023-06-24T15:49:58;100808.84;;;26.96;47.77
76460;BME280;65299;46.084;18.762;2023-06-24T15:52:59;100822.00;;;26.56;48.80
76460;BME280;65299;46.084;18.762;2023-06-24T15:55:59;100840.38;;;26.09;51.21
76460;BME280;65299;46.084;18.762;2023-06-24T15:59:00;100825.47;;;25.28;52.42